Ridgway, Pennsylvania
Current Conditions -  °F | °C
As of 4:41 AM on Thursday 23 Oct 2014 (Local Time) from KDUJ Reporting Station
Overcast Overcast  
Wind Chill: 39°   Ceiling: 1500
Heat Index: 44°   Visibility: 10mi
Dew Point: 39°   Wind: 10mph
Humidity: 82%   Direction: 340°NNW
Pressure: 30.04"   Gusts: 20mph
Location:  41.42°N, 78.73°W
Report Text: KDUJ 230841Z AUTO 34009G17KT 10SM OVC015 07/04 A3004 RMK AO2 T00670039
Loading
Personal Weather Stations






























Interactive Weather Map
Tropical Storm Tracking
New forecast layout! Learn more

10-Day Weather Forecast

Advertisements
Track Severe Weather on mobile